Flight Track Log - Related Links

Times and Time Zones

All times are in EDT time to prevent confusion due to time zone crossing. See the NKS971 flight status page for this flight to view local times or setup timezone preferences in your user account.

Time Position Orientation Groundspeed Altitude Reporting Facility
EDT Latitude Longitude Course Direction KTS MPH feet Rate Location/Type
Mon 12:16:52 AM 32.8490 -97.0510 181° South 182 209 2,800  Level FlightAware ADS-B
Mon 12:17:07 AM 32.8350 -97.0520 183° South 203 234 3,200 2,267 Climbing FlightAware ADS-B
Mon 12:17:37 AM 32.8060 -97.0620 196° South 231 266 4,500 2,550 Climbing FlightAware ADS-B
Mon 12:17:47 AM 32.8000 -97.0720 234° Southwest 242 278 4,900 2,160 Climbing FlightAware ADS-B
Mon 12:18:02 AM 32.7950 -97.0910 253° West 265 305 5,400 3,200 Climbing FlightAware ADS-B
Mon 12:18:32 AM 32.7990 -97.1380 276° West 265 305 7,300 3,600 Climbing FlightAware ADS-B
Mon 12:18:57 AM 32.8030 -97.1730 278° West 260 299 8,700 3,000 Climbing FlightAware ADS-B
Mon 12:19:42 AM 32.8090 -97.2370 276° West 270 311 10,800 2,259 Climbing FlightAware ADS-B
Mon 12:20:22 AM 32.8140 -97.3010 275° West 307 353 11,900 2,475 Climbing FlightAware ADS-B
Mon 12:21:02 AM 32.8210 -97.3660 277° West 292 336 14,100 2,753 Climbing FlightAware ADS-B
Mon 12:21:47 AM 32.8280 -97.4410 276° West 309 356 15,800 2,118 Climbing FlightAware ADS-B
Mon 12:22:27 AM 32.8350 -97.5130 277° West 325 374 17,100 1,950 Climbing FlightAware ADS-B
Mon 12:23:07 AM 32.8400 -97.5780 275° West 335 386 18,400 2,118 Climbing FlightAware ADS-B
Mon 12:23:52 AM 32.8470 -97.6660 275° West 341 392 20,100 2,329 Climbing FlightAware ADS-B
Mon 12:24:32 AM 32.8540 -97.7410 276° West 343 395 21,700 2,047 Climbing FlightAware ADS-B
Mon 12:25:17 AM 32.8610 -97.8250 276° West 355 409 23,000 1,694 Climbing FlightAware ADS-B
Mon 12:25:57 AM 32.8680 -97.9040 276° West 363 418 24,100 1,906 Climbing FlightAware ADS-B
Mon 12:26:42 AM 32.8760 -97.9970 276° West 362 417 25,700 1,835 Climbing FlightAware ADS-B
Mon 12:27:22 AM 32.8830 -98.0740 276° West 368 423 26,700 1,425 Climbing FlightAware ADS-B
Mon 12:28:02 AM 32.8890 -98.1530 275° West 374 430 27,600 1,271 Climbing FlightAware ADS-B
Mon 12:28:47 AM 32.8970 -98.2430 276° West 384 442 28,500 918 Climbing FlightAware ADS-B
Mon 12:29:27 AM 32.9040 -98.3320 275° West 400 460 28,900 600 Climbing FlightAware ADS-B
Mon 12:30:07 AM 32.9120 -98.4210 276° West 421 484 29,300 847 Climbing FlightAware ADS-B
Mon 12:30:52 AM 32.9210 -98.5320 276° West 427 491 30,100 1,200 Climbing FlightAware ADS-B
Mon 12:31:32 AM 32.9280 -98.6200 275° West 425 489 31,000 1,482 Climbing FlightAware ADS-B
Mon 12:32:17 AM 32.9370 -98.7300 276° West 421 484 32,200 1,400 Climbing FlightAware ADS-B
Mon 12:33:02 AM 32.9450 -98.8300 275° West 420 483 33,100 1,341 Climbing FlightAware ADS-B
Mon 12:33:42 AM 32.9530 -98.9260 276° West 415 478 34,100 1,350 Climbing FlightAware ADS-B
Mon 12:34:22 AM 32.9600 -99.0160 275° West 412 474 34,900 1,275 Climbing FlightAware ADS-B
Mon 12:35:02 AM 32.9680 -99.1060 276° West 405 466 35,800 776 Climbing FlightAware ADS-B
Mon 12:35:47 AM 32.9750 -99.2040 275° West 406 467 36,000 141 Climbing FlightAware ADS-B
Mon 12:36:27 AM 32.9820 -99.2940 275° West 402 463 36,000  Level FlightAware ADS-B
Mon 12:37:12 AM 32.9890 -99.3930 275° West 404 465 36,000  Level FlightAware ADS-B
Mon 12:37:52 AM 32.9960 -99.4800 276° West 403 464 36,000  Level FlightAware ADS-B
Mon 12:38:37 AM 33.0030 -99.5740 275° West 404 465 36,000  Level FlightAware ADS-B
Mon 12:39:17 AM 33.0100 -99.6700 275° West 405 466 36,000  Level FlightAware ADS-B
Mon 12:40:12 AM 33.0180 -99.7840 275° West 405 466 36,000  Level FlightAware ADS-B
Mon 12:40:52 AM 33.0240 -99.8600 275° West 405 466 36,000  Level FlightAware ADS-B
Mon 12:41:32 AM 33.0290 -99.9360 275° West 405 466 36,000  Level FlightAware ADS-B
Mon 12:42:22 AM 33.0390 -100.0740 275° West 400 460 36,000  Level FlightAware ADS-B
Mon 12:43:02 AM 33.0450 -100.1640 275° West 399 459 36,000  Level FlightAware ADS-B
Mon 12:43:37 AM 33.0500 -100.2360 275° West 399 459 36,000  Level FlightAware ADS-B
Mon 12:44:22 AM 33.0560 -100.3310 274° West 401 461 36,000  Level FlightAware ADS-B
Mon 12:45:07 AM 33.0640 -100.4340 275° West 399 459 36,000  Level FlightAware ADS-B
Mon 12:45:52 AM 33.0690 -100.5240 274° West 399 459 36,000  Level FlightAware ADS-B
Mon 12:46:32 AM 33.0730 -100.5990 274° West 399 459 36,000  Level FlightAware ADS-B
Mon 12:47:12 AM 33.0810 -100.7070 275° West 395 455 36,000  Level FlightAware ADS-B
Mon 12:47:52 AM 33.0860 -100.7900 274° West 395 455 36,000  Level FlightAware ADS-B
Mon 12:48:32 AM 33.0910 -100.8640 275° West 395 455 36,000  Level FlightAware ADS-B
Mon 12:49:12 AM 33.0950 -100.9380 274° West 395 455 36,000  Level FlightAware ADS-B
Mon 12:50:02 AM 33.1000 -101.0300 274° West 395 455 36,000  Level FlightAware ADS-B
Mon 12:50:42 AM 33.1050 -101.1040 275° West 395 455 36,000  Level FlightAware ADS-B
Mon 12:51:22 AM 33.1090 -101.1780 274° West 395 455 36,000  Level FlightAware ADS-B
Mon 12:52:02 AM 33.1130 -101.2520 274° West 395 455 36,000  Level FlightAware ADS-B
Mon 12:52:42 AM 33.1180 -101.3260 275° West 395 455 36,000  Level FlightAware ADS-B
Mon 12:53:32 AM 33.1230 -101.4190 274° West 395 455 36,000  Level FlightAware ADS-B
Mon 12:54:12 AM 33.1270 -101.4930 274° West 395 455 36,000  Level FlightAware ADS-B
Mon 12:54:52 AM 33.1320 -101.5670 275° West 395 455 36,000  Level FlightAware ADS-B
Mon 12:55:32 AM 33.1360 -101.6410 274° West 395 455 36,000  Level FlightAware ADS-B
Mon 12:56:12 AM 33.1400 -101.7150 274° West 395 455 36,000  Level FlightAware ADS-B
Mon 12:57:02 AM 33.1460 -101.8070 274° West 395 455 36,000  Level FlightAware ADS-B
Mon 12:57:57 AM 33.1597 -102.0833 274° West 404 465 36,000  Level Fort Worth Center
Mon 12:58:57 AM 33.1689 -102.2253 274° West 395 455 36,000  Level Fort Worth Center
Mon 12:59:57 AM 33.1767 -102.3447 274° West 400 460 36,000  Level Fort Worth Center
Mon 01:00:57 AM 33.1814 -102.4889 272° West 400 460 36,000  Level Fort Worth Center
Mon 01:01:57 AM 33.1914 -102.6011 276° West 400 460 36,000  Level Fort Worth Center
Mon 01:02:57 AM 33.1983 -102.7331 274° West 400 460 36,000  Level Fort Worth Center
Mon 01:03:57 AM 33.2056 -102.8578 274° West 395 455 36,000  Level Fort Worth Center
Mon 01:04:57 AM 33.2117 -103.0044 273° West 400 460 36,000  Level Fort Worth Center
Mon 01:06:01 AM 33.2153 -103.1333 272° West 392 451 36,000  Level Albuquerque Center
Mon 01:07:01 AM 33.2203 -103.2628 273° West 393 452 36,000  Level Albuquerque Center
Mon 01:08:02 AM 33.2267 -103.3928 273° West 393 452 36,000  Level Albuquerque Center
Mon 01:09:03 AM 33.2306 -103.5256 272° West 398 458 36,000  Level Albuquerque Center
Mon 01:10:04 AM 33.2358 -103.6575 273° West 399 459 36,000  Level Albuquerque Center
Mon 01:11:05 AM 33.2453 -103.8014 275° West 391 450 36,000  Level Albuquerque Center
Mon 01:12:06 AM 33.2497 -103.9314 272° West 391 450 36,000  Level Albuquerque Center
Mon 01:13:07 AM 33.2542 -104.0597 272° West 390 449 36,000  Level Albuquerque Center
Mon 01:14:08 AM 33.2589 -104.1989 272° West 390 449 36,000  Level Albuquerque Center
Mon 01:15:09 AM 33.2636 -104.3269 273° West 390 449 36,000  Level Albuquerque Center
Mon 01:16:10 AM 33.2669 -104.4567 272° West 393 452 36,000  Level Albuquerque Center
Mon 01:17:11 AM 33.2714 -104.5850 272° West 389 448 36,000  Level Albuquerque Center
Mon 01:18:12 AM 33.2750 -104.7169 272° West 385 443 36,000  Level Albuquerque Center
Mon 01:19:12 AM 33.2792 -104.8428 272° West 379 436 36,000  Level Albuquerque Center
Mon 01:20:13 AM 33.2833 -104.9692 272° West 381 438 36,000  Level Albuquerque Center
Mon 01:21:14 AM 33.2872 -105.1072 272° West 385 443 36,000 49 Level Albuquerque Center
Mon 01:22:15 AM 33.2911 -105.2356 272° West 386 444 36,100  Climbing Albuquerque Center
Mon 01:23:16 AM 33.2944 -105.3661 272° West 394 453 36,000 -49 Descending Albuquerque Center
Mon 01:24:17 AM 33.2983 -105.4936 272° West 385 443 36,000  Level Albuquerque Center
Mon 01:25:18 AM 33.3014 -105.6200 272° West 394 453 36,000  Level Albuquerque Center
Mon 01:26:19 AM 33.3069 -105.7519 273° West 397 457 36,000  Level Albuquerque Center
Mon 01:27:19 AM 33.3117 -105.8833 272° West 398 458 36,000  Level Albuquerque Center
Mon 01:28:20 AM 33.3114 -106.0092 270° West 392 451 36,000 -49 Level Albuquerque Center
Mon 01:29:21 AM 33.3142 -106.1339 272° West 382 440 35,900 -49 Descending Albuquerque Center
Mon 01:30:22 AM 33.3167 -106.2597 271° West 381 438 35,900  Level Albuquerque Center
Mon 01:31:23 AM 33.3194 -106.3872 272° West 382 440 35,900 49 Level Albuquerque Center
Mon 01:32:24 AM 33.3222 -106.5392 271° West 384 442 36,000  Climbing Albuquerque Center
Mon 01:33:25 AM 33.3239 -106.6667 271° West 385 443 35,900  Descending Albuquerque Center
Mon 01:34:25 AM 33.3264 -106.7961 271° West 389 448 36,000 50 Climbing Albuquerque Center
Mon 01:35:26 AM 33.3281 -106.9236 271° West 388 447 36,000  Level Albuquerque Center
Mon 01:36:27 AM 33.3294 -107.0542 271° West 392 451 36,000  Level Albuquerque Center
Mon 01:37:28 AM 33.3322 -107.1833 272° West 393 452 36,000 -49 Level Albuquerque Center
Mon 01:38:29 AM 33.3331 -107.3072 270° West 384 442 35,900 -50 Descending Albuquerque Center
Mon 01:39:29 AM 33.3347 -107.4339 271° West 384 442 35,900  Level Albuquerque Center
Mon 01:40:30 AM 33.3364 -107.5603 271° West 383 441 35,900 16 Level Albuquerque Center
Mon 01:45:52 AM 33.3410 -108.2740 271° West 391 450 36,000 16 Climbing FlightAware ADS-B
Mon 01:46:37 AM 33.3410 -108.3590 270° West 391 450 36,000  Level FlightAware ADS-B
Mon 01:47:17 AM 33.3410 -108.4320 270° West 391 450 36,000  Level FlightAware ADS-B
Mon 01:47:57 AM 33.3410 -108.5060 270° West 391 450 36,000  Level FlightAware ADS-B
Mon 01:48:37 AM 33.3410 -108.5790 270° West 391 450 36,000  Level FlightAware ADS-B
Mon 01:49:17 AM 33.3410 -108.6530 270° West 391 450 36,000  Level FlightAware ADS-B
Mon 01:49:57 AM 33.3410 -108.7270 270° West 391 450 36,000  Level FlightAware ADS-B
Mon 01:50:37 AM 33.3420 -108.8660 271° West 36,000  Level FlightAware ADS-B
Mon 01:51:27 AM 33.3420 -108.9700 270° West 390 449 36,000  Level FlightAware ADS-B
Mon 01:52:07 AM 33.3420 -109.0570 270° West 386 444 36,000  Level FlightAware ADS-B
Mon 01:53:07 AM 33.3410 -109.1900 270° West 388 447 36,000  Level FlightAware ADS-B
Mon 01:53:47 AM 33.3400 -109.2750 269° West 391 450 36,000  Level FlightAware ADS-B
Mon 01:54:32 AM 33.3400 -109.3660 270° West 392 451 36,000 -282 Level FlightAware ADS-B
Mon 01:55:12 AM 33.3400 -109.4830 270° West 386 444 35,600 -1,129 Descending FlightAware ADS-B
Mon 01:55:57 AM 33.3390 -109.5770 269° West 379 436 34,400 -900 Descending FlightAware ADS-B
Mon 01:56:32 AM 33.3380 -109.6430 269° West 379 436 34,400  Level FlightAware ADS-B
Mon 01:57:12 AM 33.3370 -109.7140 269° West 379 436 34,400 -3,459 Level FlightAware ADS-B
Mon 01:57:57 AM 33.3190 -109.8090 257° West 384 442 29,500 -4,267 Descending FlightAware ADS-B
Mon 01:58:42 AM 33.3090 -109.8950 262° West 375 432 28,000 -2,133 Descending FlightAware ADS-B
Mon 01:59:27 AM 33.2980 -109.9920 262° West 366 421 26,300 -2,100 Descending FlightAware ADS-B
Mon 02:00:02 AM 33.2900 -110.0620 262° West 358 412 25,200 -2,000 Descending FlightAware ADS-B
Mon 02:00:42 AM 33.2820 -110.1380 263° West 350 403 23,800 -2,000 Descending FlightAware ADS-B
Mon 02:01:32 AM 33.2710 -110.2360 262° West 341 392 22,200 -1,867 Descending FlightAware ADS-B
Mon 02:02:12 AM 33.2620 -110.3060 261° West 331 381 21,000 -1,800 Descending FlightAware ADS-B
Mon 02:02:52 AM 33.2540 -110.3750 262° West 322 371 19,800 -1,875 Descending FlightAware ADS-B
Mon 02:03:32 AM 33.2460 -110.4470 262° West 315 362 18,500 -1,906 Descending FlightAware ADS-B
Mon 02:04:17 AM 33.2360 -110.5380 263° West 303 349 17,100 -1,800 Descending FlightAware ADS-B
Mon 02:05:02 AM 33.2270 -110.6140 262° West 302 348 15,800 -1,765 Descending FlightAware ADS-B
Mon 02:05:42 AM 33.2190 -110.6790 262° West 299 344 14,600 -1,725 Descending FlightAware ADS-B
Mon 02:06:22 AM 33.2110 -110.7450 262° West 294 338 13,500 -1,624 Descending FlightAware ADS-B
Mon 02:07:07 AM 33.2020 -110.8170 262° West 292 336 12,300 -1,624 Descending FlightAware ADS-B
Mon 02:07:47 AM 33.1950 -110.8790 262° West 289 333 11,200 -1,263 Descending FlightAware ADS-B
Mon 02:08:42 AM 33.1870 -110.9440 262° West 289 333 10,300 -574 Descending FlightAware ADS-B
Mon 02:09:42 AM 33.1750 -111.0390 261° West 281 323 10,100 -126 Descending FlightAware ADS-B
Mon 02:10:17 AM 33.1690 -111.0930 262° West 283 326 10,100  Level FlightAware ADS-B
Mon 02:11:07 AM 33.1590 -111.1750 262° West 283 326 10,100 -133 Level FlightAware ADS-B
Mon 02:11:47 AM 33.1520 -111.2290 261° West 282 325 9,900 -514 Descending FlightAware ADS-B
Mon 02:12:17 AM 33.1470 -111.2750 263° West 265 305 9,500 -764 Descending FlightAware ADS-B
Mon 02:12:42 AM 33.1420 -111.3120 261° West 251 289 9,200 -1,091 Descending FlightAware ADS-B
Mon 02:13:12 AM 33.1360 -111.3650 262° West 245 282 8,500 -900 Descending FlightAware ADS-B
Mon 02:13:42 AM 33.1310 -111.4020 261° West 215 247 8,300 -360 Descending FlightAware ADS-B
Mon 02:14:02 AM 33.1280 -111.4250 261° West 199 229 8,200 -436 Descending FlightAware ADS-B
Mon 02:14:37 AM 33.1250 -111.4600 264° West 195 224 7,900 -1,350 Descending FlightAware ADS-B
Mon 02:14:42 AM 33.1350 -111.4530 30° Northeast 193 222 7,300 -2,571 Descending FlightAware ADS-B
Mon 02:15:12 AM 33.1540 -111.4750 316° Northwest 185 213 6,400 -1,662 Descending FlightAware ADS-B
Mon 02:15:47 AM 33.1750 -111.4990 316° Northwest 177 204 5,500 -1,400 Descending FlightAware ADS-B
Mon 02:16:12 AM 33.1910 -111.5140 322° Northwest 174 200 5,000 -1,309 Descending FlightAware ADS-B
Mon 02:16:42 AM 33.2090 -111.5350 316° Northwest 173 199 4,300 -1,286 Descending FlightAware ADS-B
Mon 02:17:22 AM 33.2250 -111.5640 303° West 157 181 3,500 -1,108 Descending FlightAware ADS-B
Mon 02:17:47 AM 33.2380 -111.5800 314° West 144 166 3,100 -873 Descending FlightAware ADS-B
Mon 02:18:17 AM 33.2510 -111.5960 314° West 130 150 2,700 -700 Descending FlightAware ADS-B
Mon 02:18:47 AM 33.2640 -111.6110 316° Northwest 129 148 2,400 -655 Descending FlightAware ADS-B
Mon 02:19:12 AM 33.2740 -111.6220 317° Northwest 130 150 2,100 -655 Descending FlightAware ADS-B
Mon 02:19:42 AM 33.2860 -111.6360 316° Northwest 130 150 1,800 -343 Descending FlightAware ADS-B
Mon 02:20:22 AM 33.3020 -111.6550 315° West 131 151 1,700 -150 Descending FlightAware ADS-B
Mon 02:27:00 AM 33.3000 -111.6500 320° Northwest  Level FlightAware Approximate

Login

Don't have an account? Register now (free) for customized features, flight alerts, and more!